Syosyun — JD2406 — position and weather

sailwx.info

Track history (hours):
 
Tides and Currents Weather Stations Pressure Air Temp Water Temp Dewpoint Dewpoint Depression Visibility Wind Speed Wind Dir Waves Ship Positions

Syosyun

Last reported at 2016-May-25 20:34 UTC. Time now 2016-May-25 20:48 UTC.
Position N 34°41' E 135°12'.

Length 74 m; draft 4.7 m.

Type: Cargo ship. MMSI: 431000201.

Date/timePositionNaut miles runAvg speedWind from/ knotsBaromVisibWave heightAir tempDewpointWater temp
2016-May-25 20:34N 34°41' E 135°12'0 0.0
2016-May-25 19:27N 34°41' E 135°12'0 0.0
2016-May-25 18:33N 34°41' E 135°12'0 0.0
2016-May-25 17:27N 34°41' E 135°12'0 0.0
2016-May-25 16:33N 34°41' E 135°12'0 0.0
2016-May-25 15:33N 34°41' E 135°12'0 0.0
2016-May-25 14:33N 34°41' E 135°12'0 0.0
2016-May-25 13:33N 34°41' E 135°12'0 0.0
2016-May-25 12:27N 34°41' E 135°12'0 0.0
2016-May-25 11:21N 34°41' E 135°12'0 0.0
2016-May-25 10:33N 34°41' E 135°12'0 0.0
2016-May-25 09:33N 34°41' E 135°12'0 0.0
2016-May-25 08:27N 34°41' E 135°12'0 0.0
2016-May-25 07:33N 34°41' E 135°12'0 0.0
2016-May-25 06:33N 34°41' E 135°12'0 0.0
2016-May-25 05:33N 34°41' E 135°12'0 0.4
2016-May-25 04:33N 34°40' E 135°12'8 8.3
2016-May-25 03:33N 34°35' E 135°04'  
2016-May-20 04:34N 35°15' E 139°46'5 2.3
2016-May-20 02:34N 35°17' E 139°41'1 1.2
2016-May-20 01:29N 35°18' E 139°41'2 1.9
2016-May-20 00:33N 35°20' E 139°41'10 9.8
2016-May-19 23:33N 35°28' E 139°48'1010.1
2016-May-19 22:33N 35°36' E 139°56'6 5.3
2016-May-19 21:30N 35°41' E 139°59'0 0.0
2016-May-19 20:25N 35°41' E 139°59'0 0.0
2016-May-19 19:13N 35°41' E 139°59'0 0.0
2016-May-19 18:30N 35°41' E 139°59'0 0.0
2016-May-19 17:24N 35°41' E 139°59'0 0.0
2016-May-19 16:31N 35°41' E 139°59'0 0.0
2016-May-19 15:30N 35°41' E 139°59'0 0.0
2016-May-19 14:18N 35°41' E 139°59'0 0.0
2016-May-19 13:31N 35°41' E 139°59'0 0.0
2016-May-19 12:30N 35°41' E 139°59'0 0.0
2016-May-19 11:25N 35°41' E 139°59'0 0.0
2016-May-19 10:31N 35°41' E 139°59'0 0.0
2016-May-19 09:30N 35°41' E 139°59'0 0.0
2016-May-19 08:30N 35°41' E 139°59'0 0.0
2016-May-19 07:24N 35°41' E 139°59'0 0.0
2016-May-19 06:24N 35°41' E 139°59'0 0.0
2016-May-19 05:30N 35°41' E 139°59'0 0.0
2016-May-19 04:24N 35°41' E 139°59'0 0.0
2016-May-19 03:30N 35°41' E 139°59'0 0.0
2016-May-19 02:30N 35°41' E 139°59'0 0.0
2016-May-19 01:30N 35°41' E 139°59'6 6.7
2016-May-19 00:33N 35°35' E 139°56'1110.5
2016-May-18 23:33N 35°26' E 139°48'9 9.3
2016-May-18 22:33N 35°17' E 139°46'10 9.7
2016-May-18 21:33N 35°08' E 139°45'  
Track history (hours):
 
Tides and Currents Weather Stations Pressure Air Temp Water Temp Dewpoint Dewpoint Depression Visibility Wind Speed Wind Dir Waves Ship Positions

Syosyun

Last reported at 2016-May-25 20:34 UTC. Time now 2016-May-25 20:48 UTC.
Position N 34°41' E 135°12'.

Length 74 m; draft 4.7 m.

Type: Cargo ship. MMSI: 431000201.

Date/timePositionNaut miles runAvg speedWind from/ knotsBaromVisibWave heightAir tempDewpointWater temp
2016-May-25 20:34N 34°41' E 135°12'0 0.0
2016-May-25 19:27N 34°41' E 135°12'0 0.0
2016-May-25 18:33N 34°41' E 135°12'0 0.0
2016-May-25 17:27N 34°41' E 135°12'0 0.0
2016-May-25 16:33N 34°41' E 135°12'0 0.0
2016-May-25 15:33N 34°41' E 135°12'0 0.0
2016-May-25 14:33N 34°41' E 135°12'0 0.0
2016-May-25 13:33N 34°41' E 135°12'0 0.0
2016-May-25 12:27N 34°41' E 135°12'0 0.0
2016-May-25 11:21N 34°41' E 135°12'0 0.0
2016-May-25 10:33N 34°41' E 135°12'0 0.0
2016-May-25 09:33N 34°41' E 135°12'0 0.0
2016-May-25 08:27N 34°41' E 135°12'0 0.0
2016-May-25 07:33N 34°41' E 135°12'0 0.0
2016-May-25 06:33N 34°41' E 135°12'0 0.0
2016-May-25 05:33N 34°41' E 135°12'0 0.4
2016-May-25 04:33N 34°40' E 135°12'8 8.3
2016-May-25 03:33N 34°35' E 135°04'  
2016-May-20 04:34N 35°15' E 139°46'5 2.3
2016-May-20 02:34N 35°17' E 139°41'1 1.2
2016-May-20 01:29N 35°18' E 139°41'2 1.9
2016-May-20 00:33N 35°20' E 139°41'10 9.8
2016-May-19 23:33N 35°28' E 139°48'1010.1
2016-May-19 22:33N 35°36' E 139°56'6 5.3
2016-May-19 21:30N 35°41' E 139°59'0 0.0
2016-May-19 20:25N 35°41' E 139°59'0 0.0
2016-May-19 19:13N 35°41' E 139°59'0 0.0
2016-May-19 18:30N 35°41' E 139°59'0 0.0
2016-May-19 17:24N 35°41' E 139°59'0 0.0
2016-May-19 16:31N 35°41' E 139°59'0 0.0
2016-May-19 15:30N 35°41' E 139°59'0 0.0
2016-May-19 14:18N 35°41' E 139°59'0 0.0
2016-May-19 13:31N 35°41' E 139°59'0 0.0
2016-May-19 12:30N 35°41' E 139°59'0 0.0
2016-May-19 11:25N 35°41' E 139°59'0 0.0
2016-May-19 10:31N 35°41' E 139°59'0 0.0
2016-May-19 09:30N 35°41' E 139°59'0 0.0
2016-May-19 08:30N 35°41' E 139°59'0 0.0
2016-May-19 07:24N 35°41' E 139°59'0 0.0
2016-May-19 06:24N 35°41' E 139°59'0 0.0
2016-May-19 05:30N 35°41' E 139°59'0 0.0
2016-May-19 04:24N 35°41' E 139°59'0 0.0
2016-May-19 03:30N 35°41' E 139°59'0 0.0
2016-May-19 02:30N 35°41' E 139°59'0 0.0
2016-May-19 01:30N 35°41' E 139°59'6 6.7
2016-May-19 00:33N 35°35' E 139°56'1110.5
2016-May-18 23:33N 35°26' E 139°48'9 9.3
2016-May-18 22:33N 35°17' E 139°46'10 9.7
2016-May-18 21:33N 35°08' E 139°45'  

Dump ship's entire track history